sensor_id;sensor_type;location;lat;lon;timestamp;P1;durP1;ratioP1;P2;durP2;ratioP2
32152;SDS011;18656;50.580;11.392;2023-07-09T00:00:47;10.60;;;6.90;;
32152;SDS011;18656;50.580;11.392;2023-07-09T00:03:15;7.85;;;7.05;;
32152;SDS011;18656;50.580;11.392;2023-07-09T00:05:43;8.23;;;6.72;;
32152;SDS011;18656;50.580;11.392;2023-07-09T00:08:24;9.82;;;7.18;;
32152;SDS011;18656;50.580;11.392;2023-07-09T00:10:53;7.32;;;6.60;;
32152;SDS011;18656;50.580;11.392;2023-07-09T00:13:21;8.00;;;6.90;;
32152;SDS011;18656;50.580;11.392;2023-07-09T00:15:48;7.82;;;6.85;;
32152;SDS011;18656;50.580;11.392;2023-07-09T00:18:16;8.32;;;7.55;;
32152;SDS011;18656;50.580;11.392;2023-07-09T00:20:44;8.00;;;7.18;;
32152;SDS011;18656;50.580;11.392;2023-07-09T00:23:14;10.73;;;7.45;;
32152;SDS011;18656;50.580;11.392;2023-07-09T00:25:42;10.80;;;7.47;;
32152;SDS011;18656;50.580;11.392;2023-07-09T00:28:14;8.43;;;7.55;;
32152;SDS011;18656;50.580;11.392;2023-07-09T00:30:41;11.73;;;7.80;;
32152;SDS011;18656;50.580;11.392;2023-07-09T00:33:12;10.85;;;6.97;;
32152;SDS011;18656;50.580;11.392;2023-07-09T00:35:47;8.63;;;7.72;;
32152;SDS011;18656;50.580;11.392;2023-07-09T00:38:20;8.27;;;7.03;;
32152;SDS011;18656;50.580;11.392;2023-07-09T00:41:02;7.97;;;7.18;;
32152;SDS011;18656;50.580;11.392;2023-07-09T00:43:31;8.88;;;7.82;;
32152;SDS011;18656;50.580;11.392;2023-07-09T00:48:41;10.23;;;7.80;;
32152;SDS011;18656;50.580;11.392;2023-07-09T00:51:15;9.38;;;7.07;;
32152;SDS011;18656;50.580;11.392;2023-07-09T00:53:44;8.85;;;7.80;;
32152;SDS011;18656;50.580;11.392;2023-07-09T00:56:29;8.40;;;7.50;;
32152;SDS011;18656;50.580;11.392;2023-07-09T00:58:57;8.07;;;7.10;;
32152;SDS011;18656;50.580;11.392;2023-07-09T01:01:30;8.23;;;7.43;;
32152;SDS011;18656;50.580;11.392;2023-07-09T01:03:58;7.85;;;6.97;;
32152;SDS011;18656;50.580;11.392;2023-07-09T01:06:27;8.43;;;7.63;;
32152;SDS011;18656;50.580;11.392;2023-07-09T01:08:58;9.02;;;7.13;;
32152;SDS011;18656;50.580;11.392;2023-07-09T01:11:30;8.55;;;7.28;;
32152;SDS011;18656;50.580;11.392;2023-07-09T01:14:02;9.27;;;8.13;;
32152;SDS011;18656;50.580;11.392;2023-07-09T01:16:30;13.00;;;7.35;;
32152;SDS011;18656;50.580;11.392;2023-07-09T01:19:01;7.85;;;6.93;;
32152;SDS011;18656;50.580;11.392;2023-07-09T01:21:30;9.75;;;8.00;;
32152;SDS011;18656;50.580;11.392;2023-07-09T01:23:58;7.85;;;6.95;;
32152;SDS011;18656;50.580;11.392;2023-07-09T01:26:37;9.05;;;8.10;;
32152;SDS011;18656;50.580;11.392;2023-07-09T01:29:05;9.05;;;7.60;;
32152;SDS011;18656;50.580;11.392;2023-07-09T01:31:32;9.25;;;8.25;;
32152;SDS011;18656;50.580;11.392;2023-07-09T01:34:00;7.93;;;7.22;;
32152;SDS011;18656;50.580;11.392;2023-07-09T01:36:27;10.90;;;7.95;;
32152;SDS011;18656;50.580;11.392;2023-07-09T01:38:55;8.68;;;7.80;;
32152;SDS011;18656;50.580;11.392;2023-07-09T01:41:23;10.60;;;8.02;;
32152;SDS011;18656;50.580;11.392;2023-07-09T01:43:50;8.55;;;7.72;;
32152;SDS011;18656;50.580;11.392;2023-07-09T01:46:17;8.45;;;7.65;;
32152;SDS011;18656;50.580;11.392;2023-07-09T01:48:45;8.52;;;7.57;;
32152;SDS011;18656;50.580;11.392;2023-07-09T01:51:14;10.45;;;8.52;;
32152;SDS011;18656;50.580;11.392;2023-07-09T01:53:42;10.57;;;8.25;;
32152;SDS011;18656;50.580;11.392;2023-07-09T01:56:10;10.43;;;8.07;;
32152;SDS011;18656;50.580;11.392;2023-07-09T01:58:38;9.98;;;8.15;;
32152;SDS011;18656;50.580;11.392;2023-07-09T02:01:09;8.65;;;7.75;;
32152;SDS011;18656;50.580;11.392;2023-07-09T02:03:36;8.25;;;7.47;;
32152;SDS011;18656;50.580;11.392;2023-07-09T02:06:04;9.30;;;7.65;;
32152;SDS011;18656;50.580;11.392;2023-07-09T02:08:36;10.05;;;8.23;;
32152;SDS011;18656;50.580;11.392;2023-07-09T02:11:04;8.63;;;7.72;;
32152;SDS011;18656;50.580;11.392;2023-07-09T02:13:31;12.02;;;7.90;;
32152;SDS011;18656;50.580;11.392;2023-07-09T02:15:58;9.45;;;8.50;;
32152;SDS011;18656;50.580;11.392;2023-07-09T02:18:27;7.70;;;6.95;;
32152;SDS011;18656;50.580;11.392;2023-07-09T02:20:55;9.25;;;8.27;;
32152;SDS011;18656;50.580;11.392;2023-07-09T02:23:25;11.00;;;7.38;;
32152;SDS011;18656;50.580;11.392;2023-07-09T02:25:53;8.70;;;7.80;;
32152;SDS011;18656;50.580;11.392;2023-07-09T02:28:20;9.25;;;7.68;;
32152;SDS011;18656;50.580;11.392;2023-07-09T02:30:48;8.40;;;7.60;;
32152;SDS011;18656;50.580;11.392;2023-07-09T02:33:15;9.10;;;7.53;;
32152;SDS011;18656;50.580;11.392;2023-07-09T02:35:42;9.02;;;7.43;;
32152;SDS011;18656;50.580;11.392;2023-07-09T02:38:09;8.05;;;7.35;;
32152;SDS011;18656;50.580;11.392;2023-07-09T02:40:38;9.55;;;8.32;;
32152;SDS011;18656;50.580;11.392;2023-07-09T02:43:05;9.25;;;8.35;;
32152;SDS011;18656;50.580;11.392;2023-07-09T02:45:33;10.50;;;8.45;;
32152;SDS011;18656;50.580;11.392;2023-07-09T02:48:00;12.07;;;8.77;;
32152;SDS011;18656;50.580;11.392;2023-07-09T02:50:27;9.05;;;8.15;;
32152;SDS011;18656;50.580;11.392;2023-07-09T02:52:54;10.23;;;8.48;;
32152;SDS011;18656;50.580;11.392;2023-07-09T02:55:22;10.13;;;8.77;;
32152;SDS011;18656;50.580;11.392;2023-07-09T02:57:50;9.05;;;8.15;;
32152;SDS011;18656;50.580;11.392;2023-07-09T03:00:18;11.57;;;9.00;;
32152;SDS011;18656;50.580;11.392;2023-07-09T03:02:45;9.55;;;8.60;;
32152;SDS011;18656;50.580;11.392;2023-07-09T03:05:12;10.23;;;8.93;;
32152;SDS011;18656;50.580;11.392;2023-07-09T03:07:40;10.93;;;8.43;;
32152;SDS011;18656;50.580;11.392;2023-07-09T03:10:07;11.18;;;8.52;;
32152;SDS011;18656;50.580;11.392;2023-07-09T03:12:34;8.68;;;7.82;;
32152;SDS011;18656;50.580;11.392;2023-07-09T03:15:02;9.10;;;8.30;;
32152;SDS011;18656;50.580;11.392;2023-07-09T03:17:29;9.45;;;8.55;;
32152;SDS011;18656;50.580;11.392;2023-07-09T03:19:56;9.90;;;8.82;;
32152;SDS011;18656;50.580;11.392;2023-07-09T03:22:23;11.00;;;8.80;;
32152;SDS011;18656;50.580;11.392;2023-07-09T03:24:51;8.93;;;8.07;;
32152;SDS011;18656;50.580;11.392;2023-07-09T03:27:18;9.50;;;8.02;;
32152;SDS011;18656;50.580;11.392;2023-07-09T03:29:45;9.30;;;8.40;;
32152;SDS011;18656;50.580;11.392;2023-07-09T03:32:12;10.45;;;9.35;;
32152;SDS011;18656;50.580;11.392;2023-07-09T03:34:40;10.02;;;8.75;;
32152;SDS011;18656;50.580;11.392;2023-07-09T03:37:07;9.40;;;8.50;;
32152;SDS011;18656;50.580;11.392;2023-07-09T03:39:34;12.25;;;8.95;;
32152;SDS011;18656;50.580;11.392;2023-07-09T03:42:01;18.15;;;9.20;;
32152;SDS011;18656;50.580;11.392;2023-07-09T03:44:29;9.50;;;8.50;;
32152;SDS011;18656;50.580;11.392;2023-07-09T03:46:56;13.23;;;8.50;;
32152;SDS011;18656;50.580;11.392;2023-07-09T03:49:24;9.50;;;8.50;;
32152;SDS011;18656;50.580;11.392;2023-07-09T03:51:51;9.45;;;8.45;;
32152;SDS011;18656;50.580;11.392;2023-07-09T03:54:18;12.00;;;9.00;;
32152;SDS011;18656;50.580;11.392;2023-07-09T03:56:45;9.93;;;8.73;;
32152;SDS011;18656;50.580;11.392;2023-07-09T03:59:12;10.00;;;8.38;;
32152;SDS011;18656;50.580;11.392;2023-07-09T04:01:40;9.10;;;8.20;;
32152;SDS011;18656;50.580;11.392;2023-07-09T04:04:13;10.15;;;9.07;;
32152;SDS011;18656;50.580;11.392;2023-07-09T04:06:40;9.75;;;8.70;;
32152;SDS011;18656;50.580;11.392;2023-07-09T04:09:07;10.15;;;9.15;;
32152;SDS011;18656;50.580;11.392;2023-07-09T04:11:34;9.05;;;8.25;;
32152;SDS011;18656;50.580;11.392;2023-07-09T04:14:02;8.77;;;7.97;;
32152;SDS011;18656;50.580;11.392;2023-07-09T04:16:29;8.77;;;7.95;;
32152;SDS011;18656;50.580;11.392;2023-07-09T04:18:56;10.45;;;8.85;;
32152;SDS011;18656;50.580;11.392;2023-07-09T04:21:23;11.27;;;8.75;;
32152;SDS011;18656;50.580;11.392;2023-07-09T04:23:51;9.02;;;8.18;;
32152;SDS011;18656;50.580;11.392;2023-07-09T04:26:18;9.13;;;8.23;;
32152;SDS011;18656;50.580;11.392;2023-07-09T04:28:45;9.18;;;8.32;;
32152;SDS011;18656;50.580;11.392;2023-07-09T04:31:12;9.77;;;8.50;;
32152;SDS011;18656;50.580;11.392;2023-07-09T04:33:39;9.38;;;8.48;;
32152;SDS011;18656;50.580;11.392;2023-07-09T04:36:07;9.65;;;8.15;;
32152;SDS011;18656;50.580;11.392;2023-07-09T04:38:35;9.38;;;8.40;;
32152;SDS011;18656;50.580;11.392;2023-07-09T04:41:02;11.07;;;7.68;;
32152;SDS011;18656;50.580;11.392;2023-07-09T04:43:30;9.05;;;8.15;;
32152;SDS011;18656;50.580;11.392;2023-07-09T04:45:58;11.77;;;7.82;;
32152;SDS011;18656;50.580;11.392;2023-07-09T04:48:25;8.90;;;7.32;;
32152;SDS011;18656;50.580;11.392;2023-07-09T04:50:52;8.63;;;7.82;;
32152;SDS011;18656;50.580;11.392;2023-07-09T04:53:20;8.30;;;7.60;;
32152;SDS011;18656;50.580;11.392;2023-07-09T04:55:48;7.80;;;7.03;;
32152;SDS011;18656;50.580;11.392;2023-07-09T04:58:16;10.95;;;7.75;;
32152;SDS011;18656;50.580;11.392;2023-07-09T05:00:44;11.60;;;7.40;;
32152;SDS011;18656;50.580;11.392;2023-07-09T05:03:12;8.90;;;7.32;;
32152;SDS011;18656;50.580;11.392;2023-07-09T05:05:43;9.60;;;7.65;;
32152;SDS011;18656;50.580;11.392;2023-07-09T05:08:11;8.52;;;7.60;;
32152;SDS011;18656;50.580;11.392;2023-07-09T05:10:44;8.60;;;7.40;;
32152;SDS011;18656;50.580;11.392;2023-07-09T05:13:12;9.18;;;7.22;;
32152;SDS011;18656;50.580;11.392;2023-07-09T05:15:40;9.82;;;6.85;;
32152;SDS011;18656;50.580;11.392;2023-07-09T05:18:08;7.65;;;6.60;;
32152;SDS011;18656;50.580;11.392;2023-07-09T05:20:35;7.38;;;6.68;;
32152;SDS011;18656;50.580;11.392;2023-07-09T05:23:02;7.15;;;6.45;;
32152;SDS011;18656;50.580;11.392;2023-07-09T05:25:30;11.02;;;6.60;;
32152;SDS011;18656;50.580;11.392;2023-07-09T05:27:57;7.88;;;6.10;;
32152;SDS011;18656;50.580;11.392;2023-07-09T05:30:25;6.80;;;6.15;;
32152;SDS011;18656;50.580;11.392;2023-07-09T05:32:52;7.15;;;6.18;;
32152;SDS011;18656;50.580;11.392;2023-07-09T05:35:22;6.93;;;5.65;;
32152;SDS011;18656;50.580;11.392;2023-07-09T05:37:49;6.57;;;5.28;;
32152;SDS011;18656;50.580;11.392;2023-07-09T05:40:16;7.53;;;5.60;;
32152;SDS011;18656;50.580;11.392;2023-07-09T05:42:44;7.80;;;5.95;;
32152;SDS011;18656;50.580;11.392;2023-07-09T05:45:11;6.22;;;5.63;;
32152;SDS011;18656;50.580;11.392;2023-07-09T05:47:38;7.05;;;5.72;;
32152;SDS011;18656;50.580;11.392;2023-07-09T05:50:06;21.00;;;6.38;;
32152;SDS011;18656;50.580;11.392;2023-07-09T05:52:33;12.60;;;6.15;;
32152;SDS011;18656;50.580;11.392;2023-07-09T05:55:01;14.02;;;6.00;;
32152;SDS011;18656;50.580;11.392;2023-07-09T05:57:28;24.00;;;6.65;;
32152;SDS011;18656;50.580;11.392;2023-07-09T05:59:55;14.90;;;5.80;;
32152;SDS011;18656;50.580;11.392;2023-07-09T06:02:22;9.13;;;5.80;;
32152;SDS011;18656;50.580;11.392;2023-07-09T06:04:50;9.90;;;5.45;;
32152;SDS011;18656;50.580;11.392;2023-07-09T06:07:17;13.27;;;6.05;;
32152;SDS011;18656;50.580;11.392;2023-07-09T06:09:45;6.15;;;5.38;;
32152;SDS011;18656;50.580;11.392;2023-07-09T06:12:12;6.22;;;5.13;;
32152;SDS011;18656;50.580;11.392;2023-07-09T06:14:39;7.20;;;5.55;;
32152;SDS011;18656;50.580;11.392;2023-07-09T06:17:07;6.13;;;5.63;;
32152;SDS011;18656;50.580;11.392;2023-07-09T06:19:34;6.35;;;5.57;;
32152;SDS011;18656;50.580;11.392;2023-07-09T06:22:01;11.10;;;5.22;;
32152;SDS011;18656;50.580;11.392;2023-07-09T06:24:29;7.20;;;5.15;;
32152;SDS011;18656;50.580;11.392;2023-07-09T06:26:56;12.60;;;5.57;;
32152;SDS011;18656;50.580;11.392;2023-07-09T06:29:23;6.22;;;5.45;;
32152;SDS011;18656;50.580;11.392;2023-07-09T06:31:51;9.85;;;5.57;;
32152;SDS011;18656;50.580;11.392;2023-07-09T06:34:18;8.48;;;5.60;;
32152;SDS011;18656;50.580;11.392;2023-07-09T06:36:45;11.93;;;5.32;;
32152;SDS011;18656;50.580;11.392;2023-07-09T06:39:13;14.07;;;5.90;;
32152;SDS011;18656;50.580;11.392;2023-07-09T06:41:40;17.15;;;6.25;;
32152;SDS011;18656;50.580;11.392;2023-07-09T06:44:08;21.90;;;6.22;;
32152;SDS011;18656;50.580;11.392;2023-07-09T06:46:36;14.35;;;6.25;;
32152;SDS011;18656;50.580;11.392;2023-07-09T06:49:03;6.88;;;5.30;;
32152;SDS011;18656;50.580;11.392;2023-07-09T06:51:33;12.57;;;5.70;;
32152;SDS011;18656;50.580;11.392;2023-07-09T06:54:01;12.20;;;6.18;;
32152;SDS011;18656;50.580;11.392;2023-07-09T06:56:28;15.50;;;6.18;;
32152;SDS011;18656;50.580;11.392;2023-07-09T06:58:55;12.80;;;5.63;;
32152;SDS011;18656;50.580;11.392;2023-07-09T07:01:23;8.57;;;4.95;;
32152;SDS011;18656;50.580;11.392;2023-07-09T07:03:50;8.55;;;4.78;;
32152;SDS011;18656;50.580;11.392;2023-07-09T07:06:17;9.93;;;5.18;;
32152;SDS011;18656;50.580;11.392;2023-07-09T07:08:45;6.63;;;5.10;;
32152;SDS011;18656;50.580;11.392;2023-07-09T07:11:12;6.22;;;4.45;;
32152;SDS011;18656;50.580;11.392;2023-07-09T07:13:39;9.65;;;5.28;;
32152;SDS011;18656;50.580;11.392;2023-07-09T07:16:08;16.23;;;6.00;;
32152;SDS011;18656;50.580;11.392;2023-07-09T07:18:36;13.82;;;5.78;;
32152;SDS011;18656;50.580;11.392;2023-07-09T07:21:04;21.42;;;5.53;;
32152;SDS011;18656;50.580;11.392;2023-07-09T07:23:32;13.32;;;5.38;;
32152;SDS011;18656;50.580;11.392;2023-07-09T07:25:59;6.32;;;5.10;;
32152;SDS011;18656;50.580;11.392;2023-07-09T07:28:27;18.85;;;6.32;;
32152;SDS011;18656;50.580;11.392;2023-07-09T07:30:58;10.05;;;5.18;;
32152;SDS011;18656;50.580;11.392;2023-07-09T07:33:25;10.15;;;5.15;;
32152;SDS011;18656;50.580;11.392;2023-07-09T07:35:52;9.65;;;5.40;;
32152;SDS011;18656;50.580;11.392;2023-07-09T07:38:39;7.25;;;5.20;;
32152;SDS011;18656;50.580;11.392;2023-07-09T07:41:07;9.93;;;4.80;;
32152;SDS011;18656;50.580;11.392;2023-07-09T07:43:34;9.27;;;5.10;;
32152;SDS011;18656;50.580;11.392;2023-07-09T07:46:01;11.82;;;5.05;;
32152;SDS011;18656;50.580;11.392;2023-07-09T07:48:30;8.68;;;5.25;;
32152;SDS011;18656;50.580;11.392;2023-07-09T07:51:01;5.65;;;4.93;;
32152;SDS011;18656;50.580;11.392;2023-07-09T07:53:30;6.32;;;5.03;;
32152;SDS011;18656;50.580;11.392;2023-07-09T07:55:57;9.95;;;5.43;;
32152;SDS011;18656;50.580;11.392;2023-07-09T07:58:25;9.55;;;4.80;;
32152;SDS011;18656;50.580;11.392;2023-07-09T08:00:55;8.80;;;4.88;;
32152;SDS011;18656;50.580;11.392;2023-07-09T08:03:23;5.70;;;5.05;;
32152;SDS011;18656;50.580;11.392;2023-07-09T08:05:51;8.95;;;5.47;;
32152;SDS011;18656;50.580;11.392;2023-07-09T08:08:18;10.02;;;4.78;;
32152;SDS011;18656;50.580;11.392;2023-07-09T08:10:47;5.72;;;5.07;;
32152;SDS011;18656;50.580;11.392;2023-07-09T08:13:14;7.57;;;5.50;;
32152;SDS011;18656;50.580;11.392;2023-07-09T08:15:41;6.50;;;4.78;;
32152;SDS011;18656;50.580;11.392;2023-07-09T08:18:11;5.18;;;4.30;;
32152;SDS011;18656;50.580;11.392;2023-07-09T08:20:42;4.60;;;4.28;;
32152;SDS011;18656;50.580;11.392;2023-07-09T08:23:09;4.75;;;4.30;;
32152;SDS011;18656;50.580;11.392;2023-07-09T08:25:36;4.88;;;4.47;;
32152;SDS011;18656;50.580;11.392;2023-07-09T08:28:04;5.28;;;4.50;;
32152;SDS011;18656;50.580;11.392;2023-07-09T08:30:31;5.15;;;4.50;;
32152;SDS011;18656;50.580;11.392;2023-07-09T08:32:58;5.43;;;4.05;;
32152;SDS011;18656;50.580;11.392;2023-07-09T08:35:26;4.88;;;4.38;;
32152;SDS011;18656;50.580;11.392;2023-07-09T08:38:02;5.30;;;4.15;;
32152;SDS011;18656;50.580;11.392;2023-07-09T08:40:29;6.60;;;4.43;;
32152;SDS011;18656;50.580;11.392;2023-07-09T08:43:01;4.50;;;4.10;;
32152;SDS011;18656;50.580;11.392;2023-07-09T08:45:42;4.38;;;4.00;;
32152;SDS011;18656;50.580;11.392;2023-07-09T08:48:13;4.47;;;3.83;;
32152;SDS011;18656;50.580;11.392;2023-07-09T08:50:43;5.53;;;3.90;;
32152;SDS011;18656;50.580;11.392;2023-07-09T08:53:27;5.38;;;3.75;;
32152;SDS011;18656;50.580;11.392;2023-07-09T08:55:55;4.93;;;3.83;;
32152;SDS011;18656;50.580;11.392;2023-07-09T08:58:25;4.40;;;3.78;;
32152;SDS011;18656;50.580;11.392;2023-07-09T09:00:56;3.95;;;3.65;;
32152;SDS011;18656;50.580;11.392;2023-07-09T09:03:29;6.07;;;3.85;;
32152;SDS011;18656;50.580;11.392;2023-07-09T09:05:57;5.50;;;3.80;;
32152;SDS011;18656;50.580;11.392;2023-07-09T09:10:55;4.30;;;3.90;;
32152;SDS011;18656;50.580;11.392;2023-07-09T09:13:25;4.97;;;3.80;;
32152;SDS011;18656;50.580;11.392;2023-07-09T09:15:55;4.13;;;3.72;;
32152;SDS011;18656;50.580;11.392;2023-07-09T09:18:25;6.53;;;3.97;;
32152;SDS011;18656;50.580;11.392;2023-07-09T09:21:01;5.45;;;4.15;;
32152;SDS011;18656;50.580;11.392;2023-07-09T09:23:41;8.68;;;4.60;;
32152;SDS011;18656;50.580;11.392;2023-07-09T09:26:14;4.20;;;3.80;;
32152;SDS011;18656;50.580;11.392;2023-07-09T09:28:44;4.43;;;4.10;;
32152;SDS011;18656;50.580;11.392;2023-07-09T09:31:11;6.60;;;3.78;;
32152;SDS011;18656;50.580;11.392;2023-07-09T09:33:43;4.55;;;4.15;;
32152;SDS011;18656;50.580;11.392;2023-07-09T09:36:14;4.05;;;3.72;;
32152;SDS011;18656;50.580;11.392;2023-07-09T09:38:42;4.55;;;4.18;;
32152;SDS011;18656;50.580;11.392;2023-07-09T09:41:14;4.40;;;4.05;;
32152;SDS011;18656;50.580;11.392;2023-07-09T09:43:43;8.05;;;4.45;;
32152;SDS011;18656;50.580;11.392;2023-07-09T09:46:16;4.53;;;4.13;;
32152;SDS011;18656;50.580;11.392;2023-07-09T09:48:44;5.28;;;4.50;;
32152;SDS011;18656;50.580;11.392;2023-07-09T09:51:12;4.80;;;4.35;;
32152;SDS011;18656;50.580;11.392;2023-07-09T09:53:41;5.20;;;3.80;;
32152;SDS011;18656;50.580;11.392;2023-07-09T09:56:14;5.78;;;4.47;;
32152;SDS011;18656;50.580;11.392;2023-07-09T09:58:42;7.78;;;4.20;;
32152;SDS011;18656;50.580;11.392;2023-07-09T10:01:16;11.10;;;4.72;;
32152;SDS011;18656;50.580;11.392;2023-07-09T10:03:46;7.13;;;4.60;;
32152;SDS011;18656;50.580;11.392;2023-07-09T10:06:21;5.93;;;4.40;;
32152;SDS011;18656;50.580;11.392;2023-07-09T10:08:56;9.05;;;4.40;;
32152;SDS011;18656;50.580;11.392;2023-07-09T10:11:32;5.90;;;4.65;;
32152;SDS011;18656;50.580;11.392;2023-07-09T10:14:03;35.58;;;7.20;;
32152;SDS011;18656;50.580;11.392;2023-07-09T10:16:38;8.27;;;4.45;;
32152;SDS011;18656;50.580;11.392;2023-07-09T10:19:12;4.25;;;3.88;;
32152;SDS011;18656;50.580;11.392;2023-07-09T10:21:53;7.88;;;4.30;;
32152;SDS011;18656;50.580;11.392;2023-07-09T10:24:45;3.83;;;3.50;;
32152;SDS011;18656;50.580;11.392;2023-07-09T10:27:29;5.43;;;4.10;;
32152;SDS011;18656;50.580;11.392;2023-07-09T10:30:02;5.22;;;4.38;;
32152;SDS011;18656;50.580;11.392;2023-07-09T10:35:22;4.63;;;3.80;;
32152;SDS011;18656;50.580;11.392;2023-07-09T10:38:11;4.25;;;3.55;;
32152;SDS011;18656;50.580;11.392;2023-07-09T10:40:41;4.30;;;3.40;;
32152;SDS011;18656;50.580;11.392;2023-07-09T10:43:11;6.05;;;3.78;;
32152;SDS011;18656;50.580;11.392;2023-07-09T10:45:42;7.30;;;3.85;;
32152;SDS011;18656;50.580;11.392;2023-07-09T10:48:18;3.55;;;3.30;;
32152;SDS011;18656;50.580;11.392;2023-07-09T10:50:51;4.07;;;3.63;;
32152;SDS011;18656;50.580;11.392;2023-07-09T10:56:07;4.45;;;3.45;;
32152;SDS011;18656;50.580;11.392;2023-07-09T11:01:12;7.45;;;3.45;;
32152;SDS011;18656;50.580;11.392;2023-07-09T11:03:44;4.70;;;3.58;;
32152;SDS011;18656;50.580;11.392;2023-07-09T11:06:19;3.75;;;3.45;;
32152;SDS011;18656;50.580;11.392;2023-07-09T11:08:47;4.47;;;3.27;;
32152;SDS011;18656;50.580;11.392;2023-07-09T11:11:20;6.55;;;3.33;;
32152;SDS011;18656;50.580;11.392;2023-07-09T11:13:53;3.42;;;3.13;;
32152;SDS011;18656;50.580;11.392;2023-07-09T11:16:29;4.80;;;3.92;;
32152;SDS011;18656;50.580;11.392;2023-07-09T11:19:00;4.13;;;3.60;;
32152;SDS011;18656;50.580;11.392;2023-07-09T11:21:28;4.05;;;3.30;;
32152;SDS011;18656;50.580;11.392;2023-07-09T11:23:56;3.60;;;3.30;;
32152;SDS011;18656;50.580;11.392;2023-07-09T11:26:29;5.57;;;3.38;;
32152;SDS011;18656;50.580;11.392;2023-07-09T11:34:02;6.13;;;3.20;;
32152;SDS011;18656;50.580;11.392;2023-07-09T11:36:30;4.85;;;2.90;;
32152;SDS011;18656;50.580;11.392;2023-07-09T11:38:58;4.28;;;3.42;;
32152;SDS011;18656;50.580;11.392;2023-07-09T11:41:39;5.88;;;3.15;;
32152;SDS011;18656;50.580;11.392;2023-07-09T11:44:20;3.75;;;3.45;;
32152;SDS011;18656;50.580;11.392;2023-07-09T11:47:13;3.70;;;3.17;;
32152;SDS011;18656;50.580;11.392;2023-07-09T11:52:34;4.45;;;3.03;;
32152;SDS011;18656;50.580;11.392;2023-07-09T11:57:46;3.20;;;2.90;;
32152;SDS011;18656;50.580;11.392;2023-07-09T12:00:14;3.95;;;2.67;;
32152;SDS011;18656;50.580;11.392;2023-07-09T12:02:41;5.40;;;2.75;;
32152;SDS011;18656;50.580;11.392;2023-07-09T12:05:09;6.32;;;3.00;;
32152;SDS011;18656;50.580;11.392;2023-07-09T12:07:36;2.80;;;2.60;;
32152;SDS011;18656;50.580;11.392;2023-07-09T12:10:08;2.90;;;2.70;;
32152;SDS011;18656;50.580;11.392;2023-07-09T12:12:42;5.00;;;3.10;;
32152;SDS011;18656;50.580;11.392;2023-07-09T12:15:28;2.92;;;2.63;;
32152;SDS011;18656;50.580;11.392;2023-07-09T12:17:59;8.05;;;4.03;;
32152;SDS011;18656;50.580;11.392;2023-07-09T12:20:29;3.00;;;2.75;;
32152;SDS011;18656;50.580;11.392;2023-07-09T12:22:57;3.95;;;3.33;;
32152;SDS011;18656;50.580;11.392;2023-07-09T12:25:25;3.40;;;3.10;;
32152;SDS011;18656;50.580;11.392;2023-07-09T12:27:53;4.45;;;3.00;;
32152;SDS011;18656;50.580;11.392;2023-07-09T12:30:24;5.43;;;3.42;;
32152;SDS011;18656;50.580;11.392;2023-07-09T12:32:52;5.45;;;3.20;;
32152;SDS011;18656;50.580;11.392;2023-07-09T12:35:19;9.63;;;3.20;;
32152;SDS011;18656;50.580;11.392;2023-07-09T12:37:48;4.05;;;2.90;;
32152;SDS011;18656;50.580;11.392;2023-07-09T12:40:20;3.30;;;2.97;;
32152;SDS011;18656;50.580;11.392;2023-07-09T12:42:48;4.53;;;3.08;;
32152;SDS011;18656;50.580;11.392;2023-07-09T12:45:19;3.83;;;3.25;;
32152;SDS011;18656;50.580;11.392;2023-07-09T12:47:47;7.25;;;3.03;;
32152;SDS011;18656;50.580;11.392;2023-07-09T12:52:47;5.05;;;3.25;;
32152;SDS011;18656;50.580;11.392;2023-07-09T12:55:26;3.55;;;2.97;;
32152;SDS011;18656;50.580;11.392;2023-07-09T12:57:55;3.33;;;3.00;;
32152;SDS011;18656;50.580;11.392;2023-07-09T13:00:23;3.47;;;3.00;;
32152;SDS011;18656;50.580;11.392;2023-07-09T13:02:54;5.55;;;3.15;;
32152;SDS011;18656;50.580;11.392;2023-07-09T13:05:23;3.42;;;3.13;;
32152;SDS011;18656;50.580;11.392;2023-07-09T13:07:57;3.58;;;2.83;;
32152;SDS011;18656;50.580;11.392;2023-07-09T13:10:27;4.20;;;3.35;;
32152;SDS011;18656;50.580;11.392;2023-07-09T13:12:56;5.13;;;3.30;;
32152;SDS011;18656;50.580;11.392;2023-07-09T13:15:31;9.45;;;4.35;;
32152;SDS011;18656;50.580;11.392;2023-07-09T13:18:06;6.38;;;3.25;;
32152;SDS011;18656;50.580;11.392;2023-07-09T13:20:35;7.00;;;5.15;;
32152;SDS011;18656;50.580;11.392;2023-07-09T13:23:08;3.78;;;3.33;;
32152;SDS011;18656;50.580;11.392;2023-07-09T13:25:37;4.78;;;3.10;;
32152;SDS011;18656;50.580;11.392;2023-07-09T13:30:43;9.55;;;7.95;;
32152;SDS011;18656;50.580;11.392;2023-07-09T13:33:11;4.47;;;3.72;;
32152;SDS011;18656;50.580;11.392;2023-07-09T13:35:38;3.92;;;3.25;;
32152;SDS011;18656;50.580;11.392;2023-07-09T13:38:12;5.43;;;3.13;;
32152;SDS011;18656;50.580;11.392;2023-07-09T13:40:41;3.53;;;3.20;;
32152;SDS011;18656;50.580;11.392;2023-07-09T13:43:18;5.57;;;2.83;;
32152;SDS011;18656;50.580;11.392;2023-07-09T13:45:45;3.97;;;3.15;;
32152;SDS011;18656;50.580;11.392;2023-07-09T13:48:15;4.72;;;3.05;;
32152;SDS011;18656;50.580;11.392;2023-07-09T13:50:44;6.00;;;2.88;;
32152;SDS011;18656;50.580;11.392;2023-07-09T13:53:12;5.53;;;3.53;;
32152;SDS011;18656;50.580;11.392;2023-07-09T13:55:41;5.43;;;3.13;;
32152;SDS011;18656;50.580;11.392;2023-07-09T13:58:10;3.17;;;2.80;;
32152;SDS011;18656;50.580;11.392;2023-07-09T14:00:37;3.45;;;3.00;;
32152;SDS011;18656;50.580;11.392;2023-07-09T14:05:41;3.65;;;2.85;;
32152;SDS011;18656;50.580;11.392;2023-07-09T14:08:09;7.10;;;3.58;;
32152;SDS011;18656;50.580;11.392;2023-07-09T14:10:38;4.43;;;3.33;;
32152;SDS011;18656;50.580;11.392;2023-07-09T14:13:08;4.63;;;3.47;;
32152;SDS011;18656;50.580;11.392;2023-07-09T14:15:36;5.30;;;3.10;;
32152;SDS011;18656;50.580;11.392;2023-07-09T14:18:04;9.40;;;3.97;;
32152;SDS011;18656;50.580;11.392;2023-07-09T14:20:32;3.95;;;3.05;;
32152;SDS011;18656;50.580;11.392;2023-07-09T14:22:59;11.55;;;4.70;;
32152;SDS011;18656;50.580;11.392;2023-07-09T14:25:26;5.95;;;3.67;;
32152;SDS011;18656;50.580;11.392;2023-07-09T14:27:54;6.55;;;3.95;;
32152;SDS011;18656;50.580;11.392;2023-07-09T14:30:22;3.83;;;3.45;;
32152;SDS011;18656;50.580;11.392;2023-07-09T14:32:52;6.28;;;3.25;;
32152;SDS011;18656;50.580;11.392;2023-07-09T14:35:21;4.55;;;3.50;;
32152;SDS011;18656;50.580;11.392;2023-07-09T14:37:49;3.28;;;3.08;;
32152;SDS011;18656;50.580;11.392;2023-07-09T14:40:17;4.75;;;3.38;;
32152;SDS011;18656;50.580;11.392;2023-07-09T14:42:46;4.50;;;3.50;;
32152;SDS011;18656;50.580;11.392;2023-07-09T14:45:21;4.28;;;2.95;;
32152;SDS011;18656;50.580;11.392;2023-07-09T14:47:50;5.53;;;3.33;;
32152;SDS011;18656;50.580;11.392;2023-07-09T14:50:18;6.63;;;3.70;;
32152;SDS011;18656;50.580;11.392;2023-07-09T14:52:46;3.03;;;2.83;;
32152;SDS011;18656;50.580;11.392;2023-07-09T14:57:41;5.03;;;3.30;;
32152;SDS011;18656;50.580;11.392;2023-07-09T15:00:13;5.22;;;3.33;;
32152;SDS011;18656;50.580;11.392;2023-07-09T15:02:41;6.18;;;3.50;;
32152;SDS011;18656;50.580;11.392;2023-07-09T15:05:16;5.53;;;3.05;;
32152;SDS011;18656;50.580;11.392;2023-07-09T15:07:44;4.85;;;3.30;;
32152;SDS011;18656;50.580;11.392;2023-07-09T15:10:15;5.13;;;3.88;;
32152;SDS011;18656;50.580;11.392;2023-07-09T15:12:43;5.13;;;3.70;;
32152;SDS011;18656;50.580;11.392;2023-07-09T15:15:27;4.07;;;3.45;;
32152;SDS011;18656;50.580;11.392;2023-07-09T15:17:56;4.28;;;3.60;;